This is the latest recevied weather packets stored in our database for station/object W8RSN-13. If no packets are shown the sender has not sent any weather packets the latest 10 day(s).
| Time | Temp. | Humidity | Pressure | Rain* | Wind** | Luminosity | Snow |
|---|---|---|---|---|---|---|---|
| 1788034760 | 36.11° C | 37% | 1013.4 hPa | - | - | - | - |
| 1788034459 | 36.11° C | 36% | 1013.4 hPa | - | - | - | - |
| 1788034158 | 35° C | 40% | 1013.2 hPa | - | - | - | - |
| 1788033857 | 35° C | 40% | 1013.5 hPa | - | - | - | - |
| 1788033557 | 35.56° C | 40% | 1013.6 hPa | - | - | - | - |
| 1788033256 | 35.56° C | 38% | 1014.1 hPa | - | - | - | - |
| 1788032975 | 35.56° C | 35% | 1014.1 hPa | - | - | - | - |
| 1788032674 | 35° C | 37% | 1014.1 hPa | - | - | - | - |
| 1788032373 | 35° C | 36% | 1014.1 hPa | - | - | - | - |
| 1788032072 | 34.44° C | 38% | 1014.2 hPa | - | - | - | - |
| 1788031771 | 34.44° C | 38% | 1014.2 hPa | - | - | - | - |
| 1788031471 | 34.44° C | 39% | 1014.3 hPa | - | - | - | - |
| 1788031170 | 34.44° C | 40% | 1014.4 hPa | - | - | - | - |
| 1788030869 | 34.44° C | 38% | 1014.7 hPa | - | - | - | - |
| 1788030568 | 33.89° C | 40% | 1014.5 hPa | - | - | - | - |
| 1788030267 | 34.44° C | 40% | 1014.6 hPa | - | - | - | - |
| 1788029966 | 34.44° C | 40% | 1014.5 hPa | - | - | - | - |
| 1788029665 | 34.44° C | 39% | 1014.4 hPa | - | - | - | - |
| 1788029364 | 33.89° C | 38% | 1014.7 hPa | - | - | - | - |
| 1788029063 | 33.89° C | 37% | 1014.7 hPa | - | - | - | - |
| 1788028762 | 34.44° C | 37% | 1014.8 hPa | - | - | - | - |
| 1788028462 | 33.89° C | 39% | 1015 hPa | - | - | - | - |
| 1788028161 | 33.89° C | 39% | 1015 hPa | - | - | - | - |
| 1788027859 | 33.33° C | 40% | 1015 hPa | - | - | - | - |
| 1788027559 | 33.33° C | 40% | 1014.9 hPa | - | - | - | - |
* Rain since midnight (hover to see other rain measurements)
** Current wind speed in m/s (hover to see current wind gust speed)